Aviation Digital Data Service (ADDS)

Output produced by METARs form (1839 UTC 18 April 2019)
found at http://www.aviationweather.gov/metar/data/
 
METAR text: NFTV 181800Z 14007KT 9999 FEW016 SCT040 BKN110 26/22 Q1012
Conditions at: NFTV (VAVA'U ISLAND , FJ) observed 1800 UTC 18 April 2019
Temperature: 26.0°C (79°F)
Dewpoint: 22.0°C (72°F) [RH = 79%]
Pressure (altimeter): 29.88 inches Hg (1012.0 mb)
Winds: from the SE (140 degrees) at 8 MPH (7 knots; 3.6 m/s)
Visibility: 6 or more miles (10+ km)
Ceiling: 11000 feet AGL
Clouds: few clouds at 1600 feet AGL
scattered clouds at 4000 feet AGL
broken clouds at 11000 feet AGL
Weather: no significant weather observed at this time

METAR text: NFTV 181700Z 13004KT 9999 FEW016 BKN110 26/25 Q1012
Conditions at: NFTV (VAVA'U ISLAND , FJ) observed 1700 UTC 18 April 2019
Temperature: 26.0°C (79°F)
Dewpoint: 25.0°C (77°F) [RH = 94%]
Pressure (altimeter): 29.88 inches Hg (1012.0 mb)
Winds: from the SE (130 degrees) at 5 MPH (4 knots; 2.1 m/s)
Visibility: 6 or more miles (10+ km)
Ceiling: 11000 feet AGL
Clouds: few clouds at 1600 feet AGL
broken clouds at 11000 feet AGL
Weather: no significant weather observed at this time

METAR text: NFTV 181600Z 13004KT 9999 FEW016 BKN110 26/25 Q1012
Conditions at: NFTV (VAVA'U ISLAND , FJ) observed 1600 UTC 18 April 2019
Temperature: 26.0°C (79°F)
Dewpoint: 25.0°C (77°F) [RH = 94%]
Pressure (altimeter): 29.88 inches Hg (1012.0 mb)
Winds: from the SE (130 degrees) at 5 MPH (4 knots; 2.1 m/s)
Visibility: 6 or more miles (10+ km)
Ceiling: 11000 feet AGL
Clouds: few clouds at 1600 feet AGL
broken clouds at 11000 feet AGL
Weather: no significant weather observed at this time

METAR text: NFTV 181500Z 15008KT 9999 -SHRA FEW008 SCT016 BKN110 26/24 Q1012
Conditions at: NFTV (VAVA'U ISLAND , FJ) observed 1500 UTC 18 April 2019
Temperature: 26.0°C (79°F)
Dewpoint: 24.0°C (75°F) [RH = 89%]
Pressure (altimeter): 29.88 inches Hg (1012.0 mb)
Winds: from the SSE (150 degrees) at 9 MPH (8 knots; 4.1 m/s)
Visibility: 6 or more miles (10+ km)
Ceiling: 11000 feet AGL
Clouds: few clouds at 800 feet AGL
scattered clouds at 1600 feet AGL
broken clouds at 11000 feet AGL
Weather: -SHRA  (light rain showers)

METAR text: NFTV 181400Z 12004KT 9999 FEW016 BKN110 26/25 Q1012
Conditions at: NFTV (VAVA'U ISLAND , FJ) observed 1400 UTC 18 April 2019
Temperature: 26.0°C (79°F)
Dewpoint: 25.0°C (77°F) [RH = 94%]
Pressure (altimeter): 29.88 inches Hg (1012.0 mb)
Winds: from the ESE (120 degrees) at 5 MPH (4 knots; 2.1 m/s)
Visibility: 6 or more miles (10+ km)
Ceiling: 11000 feet AGL
Clouds: few clouds at 1600 feet AGL
broken clouds at 11000 feet AGL
Weather: no significant weather observed at this time

METAR text: NFTV 181300Z 13006KT 9999 FEW016 BKN110 26/25 Q1013
Conditions at: NFTV (VAVA'U ISLAND , FJ) observed 1300 UTC 18 April 2019
Temperature: 26.0°C (79°F)
Dewpoint: 25.0°C (77°F) [RH = 94%]
Pressure (altimeter): 29.91 inches Hg (1013.0 mb)
Winds: from the SE (130 degrees) at 7 MPH (6 knots; 3.1 m/s)
Visibility: 6 or more miles (10+ km)
Ceiling: 11000 feet AGL
Clouds: few clouds at 1600 feet AGL
broken clouds at 11000 feet AGL
Weather: no significant weather observed at this time

METAR text: NFTV 181200Z 14008KT 9999 FEW016 SCT110 BKN280 26/25 Q1013
Conditions at: NFTV (VAVA'U ISLAND , FJ) observed 1200 UTC 18 April 2019
Temperature: 26.0°C (79°F)
Dewpoint: 25.0°C (77°F) [RH = 94%]
Pressure (altimeter): 29.91 inches Hg (1013.0 mb)
Winds: from the SE (140 degrees) at 9 MPH (8 knots; 4.1 m/s)
Visibility: 6 or more miles (10+ km)
Ceiling: 28000 feet AGL
Clouds: few clouds at 1600 feet AGL
scattered clouds at 11000 feet AGL
broken clouds at 28000 feet AGL
Weather: no significant weather observed at this time

METAR text: NFTV 180600Z 14007KT 4000 RA BKN007 OVC110 25/24 Q1012 RMK STN CLSD UNTIL 181200UTC
Conditions at: NFTV (VAVA'U ISLAND , FJ) observed 0600 UTC 18 April 2019
Temperature: 25.0°C (77°F)
Dewpoint: 24.0°C (75°F) [RH = 94%]
Pressure (altimeter): 29.88 inches Hg (1012.0 mb)
Winds: from the SE (140 degrees) at 8 MPH (7 knots; 3.6 m/s)
Visibility: 2.49 miles (4.01 km)
Ceiling: 700 feet AGL
Clouds: broken clouds at 700 feet AGL
overcast cloud deck at 11000 feet AGL
Weather: RA  (moderate rain)

METAR text: NFTV 180530Z 13006KT 9999 -RA BKN007 OVC110 25/24 Q1012
Conditions at: NFTV (VAVA'U ISLAND , FJ) observed 0530 UTC 18 April 2019
Temperature: 25.0°C (77°F)
Dewpoint: 24.0°C (75°F) [RH = 94%]
Pressure (altimeter): 29.88 inches Hg (1012.0 mb)
Winds: from the SE (130 degrees) at 7 MPH (6 knots; 3.1 m/s)
Visibility: 6 or more miles (10+ km)
Ceiling: 700 feet AGL
Clouds: broken clouds at 700 feet AGL
overcast cloud deck at 11000 feet AGL
Weather: -RA  (light rain)

METAR text: NFTV 180500Z 12007KT 7000 -RA BKN007 OVC110 25/24 Q1012
Conditions at: NFTV (VAVA'U ISLAND , FJ) observed 0500 UTC 18 April 2019
Temperature: 25.0°C (77°F)
Dewpoint: 24.0°C (75°F) [RH = 94%]
Pressure (altimeter): 29.88 inches Hg (1012.0 mb)
Winds: from the ESE (120 degrees) at 8 MPH (7 knots; 3.6 m/s)
Visibility: 4 miles ( 7 km)
Ceiling: 700 feet AGL
Clouds: broken clouds at 700 feet AGL
overcast cloud deck at 11000 feet AGL
Weather: -RA  (light rain)

METAR text: NFTV 180430Z 13011KT 4000 RA BKN007 OVC110 25/24 Q1012
Conditions at: NFTV (VAVA'U ISLAND , FJ) observed 0430 UTC 18 April 2019
Temperature: 25.0°C (77°F)
Dewpoint: 24.0°C (75°F) [RH = 94%]
Pressure (altimeter): 29.88 inches Hg (1012.0 mb)
Winds: from the SE (130 degrees) at 13 MPH (11 knots; 5.7 m/s)
Visibility: 2.49 miles (4.01 km)
Ceiling: 700 feet AGL
Clouds: broken clouds at 700 feet AGL
overcast cloud deck at 11000 feet AGL
Weather: RA  (moderate rain)

METAR text: NFTV 180400Z 12010KT 7000 -RA BKN007 OVC110 25/24 Q1011
Conditions at: NFTV (VAVA'U ISLAND , FJ) observed 0400 UTC 18 April 2019
Temperature: 25.0°C (77°F)
Dewpoint: 24.0°C (75°F) [RH = 94%]
Pressure (altimeter): 29.85 inches Hg (1011.0 mb)
Winds: from the ESE (120 degrees) at 12 MPH (10 knots; 5.1 m/s)
Visibility: 4 miles ( 7 km)
Ceiling: 700 feet AGL
Clouds: broken clouds at 700 feet AGL
overcast cloud deck at 11000 feet AGL
Weather: -RA  (light rain)

METAR text: NFTV 180320Z 13008KT 4000 RA BKN007 OVC110 25/24 Q1011
Conditions at: NFTV (VAVA'U ISLAND , FJ) observed 0320 UTC 18 April 2019
Temperature: 25.0°C (77°F)
Dewpoint: 24.0°C (75°F) [RH = 94%]
Pressure (altimeter): 29.85 inches Hg (1011.0 mb)
Winds: from the SE (130 degrees) at 9 MPH (8 knots; 4.1 m/s)
Visibility: 2.49 miles (4.01 km)
Ceiling: 700 feet AGL
Clouds: broken clouds at 700 feet AGL
overcast cloud deck at 11000 feet AGL
Weather: RA  (moderate rain)

METAR text: NFTV 180300Z 15011G22KT 0600 +RA BKN007 OVC110 25/24 Q1011
Conditions at: NFTV (VAVA'U ISLAND , FJ) observed 0300 UTC 18 April 2019
Temperature: 25.0°C (77°F)
Dewpoint: 24.0°C (75°F) [RH = 94%]
Pressure (altimeter): 29.85 inches Hg (1011.0 mb)
Winds: from the SSE (150 degrees) at 13 MPH (11 knots; 5.7 m/s)
gusting to 25 MPH (22 knots; 11.3 m/s)
Visibility: 0.37 miles (0.60 km)
Ceiling: 700 feet AGL
Clouds: broken clouds at 700 feet AGL
overcast cloud deck at 11000 feet AGL
Weather: +RA  (heavy rain)

METAR text: NFTV 180240Z 14009G17KT 5000 RA BKN007 OVC110 26/25 Q1011
Conditions at: NFTV (VAVA'U ISLAND , FJ) observed 0240 UTC 18 April 2019
Temperature: 26.0°C (79°F)
Dewpoint: 25.0°C (77°F) [RH = 94%]
Pressure (altimeter): 29.85 inches Hg (1011.0 mb)
Winds: from the SE (140 degrees) at 10 MPH (9 knots; 4.6 m/s)
gusting to 20 MPH (17 knots; 8.7 m/s)
Visibility: 3 miles ( 5 km)
Ceiling: 700 feet AGL
Clouds: broken clouds at 700 feet AGL
overcast cloud deck at 11000 feet AGL
Weather: RA  (moderate rain)

METAR text: NFTV 180210Z 13009G17KT 9999 -RA BKN007 OVC110 26/25 Q1011
Conditions at: NFTV (VAVA'U ISLAND , FJ) observed 0210 UTC 18 April 2019
Temperature: 26.0°C (79°F)
Dewpoint: 25.0°C (77°F) [RH = 94%]
Pressure (altimeter): 29.85 inches Hg (1011.0 mb)
Winds: from the SE (130 degrees) at 10 MPH (9 knots; 4.6 m/s)
gusting to 20 MPH (17 knots; 8.7 m/s)
Visibility: 6 or more miles (10+ km)
Ceiling: 700 feet AGL
Clouds: broken clouds at 700 feet AGL
overcast cloud deck at 11000 feet AGL
Weather: -RA  (light rain)

METAR text: NFTV 180200Z 14012G18KT 4000 RA BKN007 OVC110 26/25 Q1011
Conditions at: NFTV (VAVA'U ISLAND , FJ) observed 0200 UTC 18 April 2019
Temperature: 26.0°C (79°F)
Dewpoint: 25.0°C (77°F) [RH = 94%]
Pressure (altimeter): 29.85 inches Hg (1011.0 mb)
Winds: from the SE (140 degrees) at 14 MPH (12 knots; 6.2 m/s)
gusting to 21 MPH (18 knots; 9.3 m/s)
Visibility: 2.49 miles (4.01 km)
Ceiling: 700 feet AGL
Clouds: broken clouds at 700 feet AGL
overcast cloud deck at 11000 feet AGL
Weather: RA  (moderate rain)

METAR text: NFTV 180120Z 14006KT 9999 -SHRA BKN007 OVC110 26/25 Q1011
Conditions at: NFTV (VAVA'U ISLAND , FJ) observed 0120 UTC 18 April 2019
Temperature: 26.0°C (79°F)
Dewpoint: 25.0°C (77°F) [RH = 94%]
Pressure (altimeter): 29.85 inches Hg (1011.0 mb)
Winds: from the SE (140 degrees) at 7 MPH (6 knots; 3.1 m/s)
Visibility: 6 or more miles (10+ km)
Ceiling: 700 feet AGL
Clouds: broken clouds at 700 feet AGL
overcast cloud deck at 11000 feet AGL
Weather: -SHRA  (light rain showers)

METAR text: NFTV 180100Z 13005KT 9999 BKN007 OVC110 26/25 Q1012
Conditions at: NFTV (VAVA'U ISLAND , FJ) observed 0100 UTC 18 April 2019
Temperature: 26.0°C (79°F)
Dewpoint: 25.0°C (77°F) [RH = 94%]
Pressure (altimeter): 29.88 inches Hg (1012.0 mb)
Winds: from the SE (130 degrees) at 6 MPH (5 knots; 2.6 m/s)
Visibility: 6 or more miles (10+ km)
Ceiling: 700 feet AGL
Clouds: broken clouds at 700 feet AGL
overcast cloud deck at 11000 feet AGL
Weather: no significant weather observed at this time

METAR text: NFTV 180030Z 12006KT 9999 BKN007 OVC110 26/25 Q1012
Conditions at: NFTV (VAVA'U ISLAND , FJ) observed 0030 UTC 18 April 2019
Temperature: 26.0°C (79°F)
Dewpoint: 25.0°C (77°F) [RH = 94%]
Pressure (altimeter): 29.88 inches Hg (1012.0 mb)
Winds: from the ESE (120 degrees) at 7 MPH (6 knots; 3.1 m/s)
Visibility: 6 or more miles (10+ km)
Ceiling: 700 feet AGL
Clouds: broken clouds at 700 feet AGL
overcast cloud deck at 11000 feet AGL
Weather: no significant weather observed at this time

METAR text: NFTV 180000Z 14010KT 9999 -RA BKN007 OVC110 26/25 Q1012
Conditions at: NFTV (VAVA'U ISLAND , FJ) observed 0000 UTC 18 April 2019
Temperature: 26.0°C (79°F)
Dewpoint: 25.0°C (77°F) [RH = 94%]
Pressure (altimeter): 29.88 inches Hg (1012.0 mb)
Winds: from the SE (140 degrees) at 12 MPH (10 knots; 5.1 m/s)
Visibility: 6 or more miles (10+ km)
Ceiling: 700 feet AGL
Clouds: broken clouds at 700 feet AGL
overcast cloud deck at 11000 feet AGL
Weather: -RA  (light rain)

METAR text: NFTV 172300Z 15008KT 9999 SCT008 SCT016 BKN100 27/25 Q1013
Conditions at: NFTV (VAVA'U ISLAND , FJ) observed 2300 UTC 17 April 2019
Temperature: 27.0°C (81°F)
Dewpoint: 25.0°C (77°F) [RH = 89%]
Pressure (altimeter): 29.91 inches Hg (1013.0 mb)
Winds: from the SSE (150 degrees) at 9 MPH (8 knots; 4.1 m/s)
Visibility: 6 or more miles (10+ km)
Ceiling: 10000 feet AGL
Clouds: scattered clouds at 800 feet AGL
scattered clouds at 1600 feet AGL
broken clouds at 10000 feet AGL
Weather: no significant weather observed at this time

METAR text: NFTV 172200Z 13008KT 9999 -SHRA SCT008 BKN100 26/25 Q1013 RMK SPECI CONDX CEASE
Conditions at: NFTV (VAVA'U ISLAND , FJ) observed 2200 UTC 17 April 2019
Temperature: 26.0°C (79°F)
Dewpoint: 25.0°C (77°F) [RH = 94%]
Pressure (altimeter): 29.91 inches Hg (1013.0 mb)
Winds: from the SE (130 degrees) at 9 MPH (8 knots; 4.1 m/s)
Visibility: 6 or more miles (10+ km)
Ceiling: 10000 feet AGL
Clouds: scattered clouds at 800 feet AGL
broken clouds at 10000 feet AGL
Weather: -SHRA  (light rain showers)

METAR text: NFTV 172100Z 14009KT 9999 -SHRA BKN008 BKN100 26/25 Q1013
Conditions at: NFTV (VAVA'U ISLAND , FJ) observed 2100 UTC 17 April 2019
Temperature: 26.0°C (79°F)
Dewpoint: 25.0°C (77°F) [RH = 94%]
Pressure (altimeter): 29.91 inches Hg (1013.0 mb)
Winds: from the SE (140 degrees) at 10 MPH (9 knots; 4.6 m/s)
Visibility: 6 or more miles (10+ km)
Ceiling: 800 feet AGL
Clouds: broken clouds at 800 feet AGL
broken clouds at 10000 feet AGL
Weather: -SHRA  (light rain showers)

METAR text: NFTV 172030Z 13008KT 9999 BKN008 BKN110 26/25 Q1014 RERA
Conditions at: NFTV (VAVA'U ISLAND , FJ) observed 2030 UTC 17 April 2019
Temperature: 26.0°C (79°F)
Dewpoint: 25.0°C (77°F) [RH = 94%]
Pressure (altimeter): 29.94 inches Hg (1014.0 mb)
Winds: from the SE (130 degrees) at 9 MPH (8 knots; 4.1 m/s)
Visibility: 6 or more miles (10+ km)
Ceiling: 800 feet AGL
Clouds: broken clouds at 800 feet AGL
broken clouds at 11000 feet AGL
Weather: no significant weather observed at this time

METAR text: NFTV 172020Z 12009KT 600 -RA BKN008 BKN110 26/25 Q1014
Conditions at: NFTV (VAVA'U ISLAND , FJ) observed 2020 UTC 17 April 2019
Temperature: 26.0°C (79°F)
Dewpoint: 25.0°C (77°F) [RH = 94%]
Pressure (altimeter): 29.94 inches Hg (1014.0 mb)
Winds: from the ESE (120 degrees) at 10 MPH (9 knots; 4.6 m/s)
Visibility: missing
Ceiling: 800 feet AGL
Clouds: broken clouds at 800 feet AGL
broken clouds at 11000 feet AGL
Weather: -RA  (light rain)

METAR text: NFTV 172000Z 13009KT 9999 SCT008 SCT016TCU BKN110 26/25 Q1013
Conditions at: NFTV (VAVA'U ISLAND , FJ) observed 2000 UTC 17 April 2019
Temperature: 26.0°C (79°F)
Dewpoint: 25.0°C (77°F) [RH = 94%]
Pressure (altimeter): 29.91 inches Hg (1013.0 mb)
Winds: from the SE (130 degrees) at 10 MPH (9 knots; 4.6 m/s)
Visibility: 6 or more miles (10+ km)
Ceiling: 11000 feet AGL
Clouds: scattered clouds at 800 feet AGL
scattered clouds at 1600 feet AGL
broken clouds at 11000 feet AGL
Weather: no significant weather observed at this time

METAR text: NFTV 171900Z 11008KT 9999 SCT008 BKN110 26/25 Q1013
Conditions at: NFTV (VAVA'U ISLAND , FJ) observed 1900 UTC 17 April 2019
Temperature: 26.0°C (79°F)
Dewpoint: 25.0°C (77°F) [RH = 94%]
Pressure (altimeter): 29.91 inches Hg (1013.0 mb)
Winds: from the ESE (110 degrees) at 9 MPH (8 knots; 4.1 m/s)
Visibility: 6 or more miles (10+ km)
Ceiling: 11000 feet AGL
Clouds: scattered clouds at 800 feet AGL
broken clouds at 11000 feet AGL
Weather: no significant weather observed at this time

METAR text: NFTV 171800Z 13008KT 9999 SCT008 SCT017 BKN110 26/25 Q1012
Conditions at: NFTV (VAVA'U ISLAND , FJ) observed 1800 UTC 17 April 2019
Temperature: 26.0°C (79°F)
Dewpoint: 25.0°C (77°F) [RH = 94%]
Pressure (altimeter): 29.88 inches Hg (1012.0 mb)
Winds: from the SE (130 degrees) at 9 MPH (8 knots; 4.1 m/s)
Visibility: 6 or more miles (10+ km)
Ceiling: 11000 feet AGL
Clouds: scattered clouds at 800 feet AGL
scattered clouds at 1700 feet AGL
broken clouds at 11000 feet AGL
Weather: no significant weather observed at this time

METAR text: NFTV 171700Z 10007KT 9999 FEW009 SCT017 BKN110 26/25 Q1012
Conditions at: NFTV (VAVA'U ISLAND , FJ) observed 1700 UTC 17 April 2019
Temperature: 26.0°C (79°F)
Dewpoint: 25.0°C (77°F) [RH = 94%]
Pressure (altimeter): 29.88 inches Hg (1012.0 mb)
Winds: from the E (100 degrees) at 8 MPH (7 knots; 3.6 m/s)
Visibility: 6 or more miles (10+ km)
Ceiling: 11000 feet AGL
Clouds: few clouds at 900 feet AGL
scattered clouds at 1700 feet AGL
broken clouds at 11000 feet AGL
Weather: no significant weather observed at this time

METAR text: NFTV 171600Z 10006KT 9999 FEW009 SCT017 BKN110 26/25 Q1012
Conditions at: NFTV (VAVA'U ISLAND , FJ) observed 1600 UTC 17 April 2019
Temperature: 26.0°C (79°F)
Dewpoint: 25.0°C (77°F) [RH = 94%]
Pressure (altimeter): 29.88 inches Hg (1012.0 mb)
Winds: from the E (100 degrees) at 7 MPH (6 knots; 3.1 m/s)
Visibility: 6 or more miles (10+ km)
Ceiling: 11000 feet AGL
Clouds: few clouds at 900 feet AGL
scattered clouds at 1700 feet AGL
broken clouds at 11000 feet AGL
Weather: no significant weather observed at this time

METAR text: NFTV 171500Z 12008KT 9999 SCT009 SCT017 BKN110 26/25 Q1012
Conditions at: NFTV (VAVA'U ISLAND , FJ) observed 1500 UTC 17 April 2019
Temperature: 26.0°C (79°F)
Dewpoint: 25.0°C (77°F) [RH = 94%]
Pressure (altimeter): 29.88 inches Hg (1012.0 mb)
Winds: from the ESE (120 degrees) at 9 MPH (8 knots; 4.1 m/s)
Visibility: 6 or more miles (10+ km)
Ceiling: 11000 feet AGL
Clouds: scattered clouds at 900 feet AGL
scattered clouds at 1700 feet AGL
broken clouds at 11000 feet AGL
Weather: no significant weather observed at this time

METAR text: NFTV 171400Z 10005KT 9999 FEW008 SCT016 BKN110 26/25 Q1012
Conditions at: NFTV (VAVA'U ISLAND , FJ) observed 1400 UTC 17 April 2019
Temperature: 26.0°C (79°F)
Dewpoint: 25.0°C (77°F) [RH = 94%]
Pressure (altimeter): 29.88 inches Hg (1012.0 mb)
Winds: from the E (100 degrees) at 6 MPH (5 knots; 2.6 m/s)
Visibility: 6 or more miles (10+ km)
Ceiling: 11000 feet AGL
Clouds: few clouds at 800 feet AGL
scattered clouds at 1600 feet AGL
broken clouds at 11000 feet AGL
Weather: no significant weather observed at this time

METAR text: NFTV 171300Z 11004KT 9999 -SHRA SCT008 SCT035 BKN110 26/25 Q1013
Conditions at: NFTV (VAVA'U ISLAND , FJ) observed 1300 UTC 17 April 2019
Temperature: 26.0°C (79°F)
Dewpoint: 25.0°C (77°F) [RH = 94%]
Pressure (altimeter): 29.91 inches Hg (1013.0 mb)
Winds: from the ESE (110 degrees) at 5 MPH (4 knots; 2.1 m/s)
Visibility: 6 or more miles (10+ km)
Ceiling: 11000 feet AGL
Clouds: scattered clouds at 800 feet AGL
scattered clouds at 3500 feet AGL
broken clouds at 11000 feet AGL
Weather: -SHRA  (light rain showers)

Forecast for: NFTV (VAVA'U ISLAND , FJ)
Text: TAF NFTV 181723Z 1818/1918 12008KT 9999 -SHRA SCT016 BKN100
Forecast period: 1800 UTC 18 April 2019 to 1800 UTC 19 April 2019
Forecast type: FROM: standard forecast or significant change
Winds: from the ESE (120 degrees) at 9 MPH (8 knots; 4.1 m/s)
Visibility: 6 or more miles 10+ km)
Ceiling: 10000 feet AGL
Clouds: scattered clouds at 1600 feet AGL
broken clouds at 10000 feet AGL
Weather: -SHRA  (light rain showers)
Text: TEMPO 1818/1918 10018G28KT
Forecast period: 1800 UTC 18 April 2019 to 1800 UTC 19 April 2019
Forecast type: TEMPORARY: The following changes expected for less than half the time period
Winds: from the E (100 degrees) at 21 MPH (18 knots; 9.3 m/s)
gusting to 32 MPH (28 knots; 14.4 m/s)
Visibility: missing
Ceiling: unknown
Clouds: missing
Weather: no significant weather forecast for this period
Text: PROB40
Forecast period: 1800 UTC 18 April 2019 to 0600 UTC 19 April 2019
Forecast type: TEMPORARY: The following changes expected for less than half the time period
Visibility: 1.86 miles (2.99 km)
Ceiling: 1000 feet AGL
Clouds: broken clouds at 1000 feet AGL
few clouds at 1600 feet AGL
Weather: TSRA  (rain associated with thunderstorm(s))